Time,TemperatureF,DewpointF,PressureIn,WindDirection,WindDirectionDegrees,WindSpeedMPH,WindSpeedGustMPH,Humidity,HourlyPrecipIn,Conditions,Clouds,dailyrainin,SolarRadiationWatts/m^2,SoftwareType,DateUTC
2013-03-25 00:00:00,30.9,22.6,29.43,North,0,3.0,12.0,71,0.00,,OVC070,0.00,0.00,VWS V14.01,2013-03-25 04:00:00,
2013-03-25 00:30:00,30.7,22.1,29.43,North,0,3.0,13.0,70,0.00,,OVC070,0.00,0.00,VWS V14.01,2013-03-25 04:30:00,
2013-03-25 01:00:00,30.4,21.8,29.43,NNW,338,3.0,14.0,70,0.00,,OVC070,0.00,0.00,VWS V14.01,2013-03-25 05:00:00,
2013-03-25 01:30:00,30.3,21.7,29.42,NNW,338,2.0,11.0,70,0.00,,OVC070,0.00,0.00,VWS V14.01,2013-03-25 05:30:00,
2013-03-25 02:00:00,30.1,21.9,29.42,NNW,338,3.0,13.0,71,0.00,,OVC070,0.00,0.00,VWS V14.01,2013-03-25 06:00:00,
2013-03-25 02:30:00,29.8,22.2,29.42,NNW,338,3.0,11.0,73,0.00,,OVC070,0.00,0.00,VWS V14.01,2013-03-25 06:30:00,
2013-03-25 03:00:00,29.5,22.2,29.42,NW,315,2.0,10.0,74,0.00,,OVC070,0.00,0.00,VWS V14.01,2013-03-25 07:00:00,
2013-03-25 03:30:00,29.3,23.0,29.41,NNW,338,2.0,13.0,77,0.00,,OVC070,0.00,0.00,VWS V14.01,2013-03-25 07:30:00,
2013-03-25 04:00:00,29.3,22.4,29.41,NNW,338,2.0,11.0,75,0.00,,OVC070,0.00,0.00,VWS V14.01,2013-03-25 08:00:00,
2013-03-25 04:30:00,29.5,22.2,29.41,NNW,338,2.0,13.0,74,0.00,,OVC070,0.00,0.00,VWS V14.01,2013-03-25 08:30:00,
2013-03-25 05:00:00,29.7,22.4,29.41,NNW,338,2.0,10.0,74,0.00,,OVC070,0.00,0.00,VWS V14.01,2013-03-25 09:00:00,
2013-03-25 05:30:00,29.8,22.5,29.40,NNW,338,2.0,10.0,74,0.00,,OVC070,0.00,0.00,VWS V14.01,2013-03-25 09:30:00,
2013-03-25 06:00:00,29.8,22.5,29.41,NNW,338,1.0,9.0,74,0.00,,OVC070,0.00,0.00,VWS V14.01,2013-03-25 10:00:00,
2013-03-25 06:30:00,30.0,23.0,29.42,NNW,338,2.0,9.0,75,0.00,,OVC070,0.00,0.00,VWS V14.01,2013-03-25 10:30:00,
2013-03-25 07:00:00,30.1,23.5,29.42,NW,315,2.0,6.0,76,0.00,,OVC070,0.00,0.00,VWS V14.01,2013-03-25 11:00:00,
2013-03-25 07:30:00,30.4,23.8,29.43,NNW,338,1.0,7.0,76,0.00,,OVC070,0.00,0.00,VWS V14.01,2013-03-25 11:30:00,
2013-03-25 08:00:00,30.6,24.3,29.44,NW,315,1.0,10.0,77,0.00,,OVC070,0.00,0.00,VWS V14.01,2013-03-25 12:00:00,
2013-03-25 08:30:00,30.9,24.2,29.45,NNW,338,1.0,9.0,76,0.00,,OVC070,0.00,10.00,VWS V14.01,2013-03-25 12:30:00,
2013-03-25 09:00:00,31.2,24.5,29.46,NW,315,1.0,6.0,76,0.00,,OVC070,0.00,30.00,VWS V14.01,2013-03-25 13:00:00,
2013-03-25 09:30:00,31.5,24.8,29.47,NNW,338,2.0,10.0,76,0.00,,OVC070,0.00,50.00,VWS V14.01,2013-03-25 13:30:00,
2013-03-25 10:00:00,31.9,25.2,29.48,NNW,338,2.0,9.0,76,0.00,,OVC070,0.00,100.00,VWS V14.01,2013-03-25 14:00:00,
2013-03-25 10:30:00,32.2,24.5,29.49,NW,315,2.0,11.0,73,0.00,,OVC070,0.00,85.00,VWS V14.01,2013-03-25 14:30:00,
2013-03-25 11:00:00,32.8,24.5,29.50,NNW,338,3.0,9.0,71,0.00,,OVC070,0.00,108.00,VWS V14.01,2013-03-25 15:00:00,
2013-03-25 11:30:00,33.4,24.7,29.51,NNW,338,3.0,11.0,70,0.00,,OVC070,0.00,117.00,VWS V14.01,2013-03-25 15:30:00,
2013-03-25 12:00:00,34.0,23.9,29.52,NNW,338,2.0,10.0,66,0.00,,OVC070,0.00,125.00,VWS V14.01,2013-03-25 16:00:00,
2013-03-25 12:30:00,34.4,24.2,29.53,NNW,338,3.0,11.0,66,0.00,,OVC070,0.00,145.00,VWS V14.01,2013-03-25 16:30:00,
2013-03-25 13:00:00,34.0,23.9,29.52,NNW,338,2.0,10.0,66,0.00,,OVC041,0.00,125.00,VWS V14.01,2013-03-25 17:00:00,
2013-03-25 13:19:00,34.4,24.2,29.53,NNW,338,3.0,11.0,66,0.00,,OVC070,0.00,145.00,VWS V14.01,2013-03-25 17:19:00,
2013-03-25 13:24:00,34.4,24.6,29.56,NNW,338,0.0,11.0,67,0.00,,OVC070,0.00,218.00,VWS V14.01,2013-03-25 17:24:00,
2013-03-25 13:29:00,34.6,24.8,29.56,ENE,63,7.0,11.0,67,0.00,,OVC070,0.00,176.00,VWS V14.01,2013-03-25 17:29:00,
2013-03-25 13:30:00,34.4,24.2,29.53,NNW,338,3.0,11.0,66,0.00,,OVC041,0.00,145.00,VWS V14.01,2013-03-25 17:30:00,
2013-03-25 13:34:00,34.6,24.4,29.56,NW,304,2.0,11.0,66,0.00,,OVC070,0.00,100.00,VWS V14.01,2013-03-25 17:34:00,
2013-03-25 13:39:00,34.7,24.5,29.56,NW,315,0.0,11.0,66,0.00,,OVC070,0.00,93.00,VWS V14.01,2013-03-25 17:39:00,
2013-03-25 13:44:00,34.7,24.5,29.56,North,355,2.0,11.0,66,0.00,,OVC070,0.00,83.00,VWS V14.01,2013-03-25 17:44:00,
2013-03-25 13:49:00,34.7,24.5,29.56,NW,311,0.0,11.0,66,0.00,,OVC070,0.00,81.00,VWS V14.01,2013-03-25 17:49:00,
2013-03-25 13:54:00,34.7,24.5,29.56,NW,325,1.0,11.0,66,0.00,,OVC028,0.00,91.00,VWS V14.01,2013-03-25 17:54:00,
2013-03-25 13:59:00,34.7,24.5,29.56,NNW,328,3.0,11.0,66,0.00,,OVC028,0.00,202.00,VWS V14.01,2013-03-25 17:59:00,
2013-03-25 14:00:00,34.7,24.9,29.58,NW,315,1.0,11.0,67,0.00,,-RA,0.00,218.00,VWS V14.01,2013-03-25 18:00:00,
2013-03-25 14:07:00,34.9,25.1,29.58,NNW,346,2.0,0.0,67,0.00,,OVC028,0.00,183.00,VWS V14.01,2013-03-25 18:07:00,
2013-03-25 14:12:00,35.0,24.8,29.58,North,11,3.0,0.0,66,0.00,,OVC028,0.00,165.00,VWS V14.01,2013-03-25 18:12:00,
2013-03-25 14:17:00,35.2,25.0,29.58,North,5,8.0,0.0,66,0.00,,OVC028,0.00,132.00,VWS V14.01,2013-03-25 18:17:00,
2013-03-25 14:22:00,35.2,24.6,29.58,WNW,302,2.0,0.0,65,0.00,,OVC026,0.00,105.00,VWS V14.01,2013-03-25 18:22:00,
2013-03-25 14:27:00,35.0,24.1,29.58,WNW,284,2.0,0.0,64,0.00,,OVC026,0.00,77.00,VWS V14.01,2013-03-25 18:27:00,
2013-03-25 14:30:00,34.6,24.4,29.56,North,360,1.0,11.0,66,0.00,,OVC041,0.00,141.00,VWS V14.01,2013-03-25 18:30:00,
2013-03-25 14:32:00,35.0,24.4,29.58,NNE,15,2.0,0.0,65,0.00,,OVC026,0.00,100.00,VWS V14.01,2013-03-25 18:32:00,
2013-03-25 14:37:00,35.0,24.1,29.58,NNW,332,1.0,0.0,64,0.00,,OVC026,0.00,98.00,VWS V14.01,2013-03-25 18:37:00,
2013-03-25 14:42:00,35.0,24.1,29.58,NW,322,0.0,0.0,64,0.00,,OVC026,0.00,104.00,VWS V14.01,2013-03-25 18:42:00,
2013-03-25 14:47:00,35.0,24.1,29.58,North,9,2.0,0.0,64,0.00,,OVC026,0.00,97.00,VWS V14.01,2013-03-25 18:47:00,
2013-03-25 14:52:00,35.0,24.1,29.58,NNW,348,1.0,0.0,64,0.00,,OVC026,0.00,79.00,VWS V14.01,2013-03-25 18:52:00,
2013-03-25 14:57:00,35.0,24.1,29.58,WNW,302,3.0,0.0,64,0.00,,OVC026,0.00,65.00,VWS V14.01,2013-03-25 18:57:00,
2013-03-25 15:00:00,34.7,24.9,29.58,NW,315,1.0,11.0,67,0.00,,OVC041,0.00,218.00,VWS V14.01,2013-03-25 19:00:00,
2013-03-25 15:02:00,35.0,24.1,29.59,WNW,299,4.0,0.0,64,0.00,,OVC026,0.00,91.00,VWS V14.01,2013-03-25 19:02:00,
2013-03-25 15:07:00,35.0,24.1,29.59,NW,325,1.0,0.0,64,0.00,,OVC026,0.00,149.00,VWS V14.01,2013-03-25 19:07:00,
2013-03-25 15:12:00,35.2,24.6,29.59,NW,317,0.0,0.0,65,0.00,,OVC026,0.00,190.00,VWS V14.01,2013-03-25 19:12:00,
2013-03-25 15:17:00,35.2,24.6,29.59,NNW,329,0.0,0.0,65,0.00,,OVC026,0.00,165.00,VWS V14.01,2013-03-25 19:17:00,
2013-03-25 15:22:00,35.5,25.6,29.59,NW,322,0.0,0.0,67,0.00,,OVC036,0.00,151.00,VWS V14.01,2013-03-25 19:22:00,
2013-03-25 15:27:00,35.5,25.6,29.59,North,355,3.0,0.0,67,0.00,,OVC036,0.00,90.00,VWS V14.01,2013-03-25 19:27:00,
2013-03-25 15:30:00,35.0,24.1,29.58,NW,309,0.0,0.0,64,0.00,,OVC041,0.00,84.00,VWS V14.01,2013-03-25 19:30:00,
2013-03-25 15:33:00,35.5,25.6,29.59,NW,315,1.0,0.0,67,0.00,,OVC036,0.00,77.00,VWS V14.01,2013-03-25 19:33:00,
2013-03-25 15:38:00,35.3,25.8,29.59,North,351,3.0,0.0,68,0.00,,OVC036,0.00,69.00,VWS V14.01,2013-03-25 19:38:00,
2013-03-25 15:43:00,35.2,25.7,29.59,North,360,2.0,0.0,68,0.00,,OVC036,0.00,62.00,VWS V14.01,2013-03-25 19:43:00,
2013-03-25 15:48:00,35.0,25.5,29.60,NW,323,2.0,0.0,68,0.00,,OVC036,0.00,74.00,VWS V14.01,2013-03-25 19:48:00,
2013-03-25 15:53:00,34.9,25.8,29.60,NNW,342,0.0,0.0,69,0.00,,OVC036,0.00,63.00,VWS V14.01,2013-03-25 19:53:00,
2013-03-25 15:58:00,34.7,25.6,29.60,NW,304,3.0,0.0,69,0.00,,OVC036,0.00,74.00,VWS V14.01,2013-03-25 19:58:00,
2013-03-25 16:00:00,35.0,24.1,29.59,NNW,330,3.0,0.0,64,0.00,,OVC041,0.00,86.00,VWS V14.01,2013-03-25 20:00:00,
2013-03-25 16:03:00,34.6,25.5,29.61,NE,46,5.0,0.0,69,0.00,,OVC036,0.00,88.00,VWS V14.01,2013-03-25 20:03:00,
2013-03-25 16:08:00,34.6,25.5,29.61,NNW,339,2.0,0.0,69,0.00,,OVC036,0.00,120.00,VWS V14.01,2013-03-25 20:08:00,
2013-03-25 16:13:00,34.6,25.5,29.61,NNW,342,7.0,0.0,69,0.00,,OVC036,0.00,146.00,VWS V14.01,2013-03-25 20:13:00,
2013-03-25 16:18:00,34.6,25.8,29.61,NNW,329,0.0,0.0,70,0.00,,OVC036,0.00,156.00,VWS V14.01,2013-03-25 20:18:00,
2013-03-25 16:23:00,34.7,25.9,29.61,NW,314,1.0,0.0,70,0.00,,OVC036,0.00,109.00,VWS V14.01,2013-03-25 20:23:00,
2013-03-25 16:28:00,34.9,26.5,29.61,NW,311,1.0,0.0,71,0.00,,OVC036,0.00,97.00,VWS V14.01,2013-03-25 20:28:00,
2013-03-25 16:30:00,35.5,25.6,29.59,NW,326,2.0,0.0,67,0.00,,OVC041,0.00,77.00,VWS V14.01,2013-03-25 20:30:00,
2013-03-25 16:33:00,34.9,26.1,29.62,NNW,329,3.0,0.0,70,0.00,,OVC031,0.00,107.00,VWS V14.01,2013-03-25 20:33:00,
2013-03-25 16:38:00,34.7,25.9,29.62,NW,317,0.0,0.0,70,0.00,,OVC031,0.00,114.00,VWS V14.01,2013-03-25 20:38:00,
2013-03-25 16:43:00,34.7,25.9,29.62,WNW,286,3.0,0.0,70,0.00,,OVC031,0.00,135.00,VWS V14.01,2013-03-25 20:43:00,
2013-03-25 16:48:00,34.9,26.5,29.62,NE,41,2.0,0.0,71,0.00,,OVC031,0.00,163.00,VWS V14.01,2013-03-25 20:48:00,
2013-03-25 16:53:00,34.9,26.5,29.62,NW,313,1.0,0.0,71,0.00,,OVC031,0.00,151.00,VWS V14.01,2013-03-25 20:53:00,
2013-03-25 16:58:00,35.0,26.6,29.62,NNW,338,2.0,0.0,71,0.00,,OVC031,0.00,120.00,VWS V14.01,2013-03-25 20:58:00,
2013-03-25 17:00:00,34.7,25.6,29.61,NW,319,3.0,0.0,69,0.00,,OVC041,0.00,81.00,VWS V14.01,2013-03-25 21:00:00,
2013-03-25 17:03:00,35.0,26.6,29.63,WNW,288,1.0,0.0,71,0.00,,OVC031,0.00,120.00,VWS V14.01,2013-03-25 21:03:00,
2013-03-25 17:08:00,35.0,26.6,29.63,WNW,301,3.0,0.0,71,0.00,,OVC031,0.00,114.00,VWS V14.01,2013-03-25 21:08:00,
2013-03-25 17:13:00,35.0,26.6,29.63,NW,314,4.0,0.0,71,0.00,,OVC040,0.00,104.00,VWS V14.01,2013-03-25 21:13:00,
2013-03-25 17:18:00,35.0,26.6,29.63,NW,314,3.0,0.0,71,0.00,,OVC040,0.00,132.00,VWS V14.01,2013-03-25 21:18:00,
2013-03-25 17:23:00,35.0,26.6,29.63,NW,323,0.0,0.0,71,0.00,,OVC040,0.00,144.00,VWS V14.01,2013-03-25 21:23:00,
2013-03-25 17:28:00,35.0,26.9,29.63,NW,317,3.0,0.0,72,0.00,,OVC040,0.00,179.00,VWS V14.01,2013-03-25 21:28:00,
2013-03-25 17:30:00,34.9,26.1,29.62,NW,315,4.0,0.0,70,0.00,,OVC041,0.00,102.00,VWS V14.01,2013-03-25 21:30:00,
2013-03-25 17:33:00,35.2,26.8,29.64,NNW,335,5.0,0.0,71,0.00,,OVC040,0.00,207.00,VWS V14.01,2013-03-25 21:33:00,
2013-03-25 17:38:00,35.3,26.5,29.64,West,279,2.0,0.0,70,0.00,,OVC040,0.00,214.00,VWS V14.01,2013-03-25 21:38:00,
2013-03-25 17:43:00,35.5,26.7,29.64,NW,315,3.0,0.0,70,0.00,,OVC050,0.00,206.00,VWS V14.01,2013-03-25 21:43:00,
2013-03-25 17:48:00,35.6,26.5,29.64,NNW,331,1.0,0.0,69,0.00,,OVC050,0.00,171.00,VWS V14.01,2013-03-25 21:48:00,
2013-03-25 17:53:00,35.8,26.6,29.64,North,9,1.0,0.0,69,0.00,,OVC050,0.00,141.00,VWS V14.01,2013-03-25 21:53:00,
2013-03-25 17:58:00,35.9,26.7,29.64,NW,310,1.0,0.0,69,0.00,,OVC050,0.00,69.00,VWS V14.01,2013-03-25 21:58:00,
2013-03-25 18:00:00,35.0,26.6,29.63,North,5,1.0,0.0,71,0.00,,OVC041,0.00,102.00,VWS V14.01,2013-03-25 22:00:00,
2013-03-25 18:03:00,36.0,26.8,29.65,NW,311,1.0,0.0,69,0.00,,OVC050,0.00,40.00,VWS V14.01,2013-03-25 22:03:00,
2013-03-25 18:08:00,35.9,26.4,29.65,North,355,5.0,0.0,68,0.00,,OVC050,0.00,25.00,VWS V14.01,2013-03-25 22:08:00,
2013-03-25 18:13:00,35.9,26.4,29.65,NNW,343,4.0,0.0,68,0.00,,OVC055,0.00,19.00,VWS V14.01,2013-03-25 22:13:00,
2013-03-25 18:18:00,35.6,26.5,29.66,NNW,336,0.0,0.0,69,0.00,,OVC055,0.00,21.00,VWS V14.01,2013-03-25 22:18:00,
2013-03-25 18:23:00,35.3,26.2,29.66,North,355,4.0,0.0,69,0.00,,OVC055,0.00,37.00,VWS V14.01,2013-03-25 22:23:00,
2013-03-25 18:28:00,35.0,25.9,29.66,NNW,342,4.0,0.0,69,0.00,,OVC055,0.00,40.00,VWS V14.01,2013-03-25 22:28:00,
2013-03-25 18:30:00,35.2,27.1,29.64,NNW,346,2.0,0.0,72,0.00,,OVC041,0.00,236.00,VWS V14.01,2013-03-25 22:30:00,
2013-03-25 18:33:00,34.9,25.8,29.67,NNW,336,1.0,0.0,69,0.00,,OVC055,0.00,77.00,VWS V14.01,2013-03-25 22:33:00,
2013-03-25 18:38:00,34.9,26.1,29.67,NNW,341,0.0,0.0,70,0.00,,OVC055,0.00,86.00,VWS V14.01,2013-03-25 22:38:00,
2013-03-25 18:43:00,34.9,26.1,29.67,North,355,2.0,0.0,70,0.00,,OVC055,0.00,77.00,VWS V14.01,2013-03-25 22:43:00,
2013-03-25 18:48:00,34.7,25.9,29.67,NNW,331,3.0,0.0,70,0.00,,OVC055,0.00,86.00,VWS V14.01,2013-03-25 22:48:00,
2013-03-25 18:53:00,34.7,25.9,29.67,NNW,339,1.0,0.0,70,0.00,,OVC055,0.00,105.00,VWS V14.01,2013-03-25 22:53:00,
2013-03-25 18:58:00,34.9,26.1,29.67,NNW,327,2.0,0.0,70,0.00,,OVC055,0.00,91.00,VWS V14.01,2013-03-25 22:58:00,
2013-03-25 19:00:00,36.0,26.8,29.65,NW,307,0.0,0.0,69,0.00,,OVC041,0.00,60.00,VWS V14.01,2013-03-25 23:00:00,
2013-03-25 19:03:00,34.9,25.8,29.68,NNW,327,1.0,0.0,69,0.00,,OVC055,0.00,77.00,VWS V14.01,2013-03-25 23:03:00,
2013-03-25 19:08:00,34.9,25.8,29.68,NNW,340,2.0,0.0,69,0.00,,OVC055,0.00,56.00,VWS V14.01,2013-03-25 23:08:00,
2013-03-25 19:13:00,34.9,25.8,29.68,NNW,339,0.0,0.0,69,0.00,,OVC055,0.00,35.00,VWS V14.01,2013-03-25 23:13:00,
2013-03-25 19:18:00,34.9,25.4,29.68,NNW,343,1.0,0.0,68,0.00,,OVC055,0.00,23.00,VWS V14.01,2013-03-25 23:18:00,
2013-03-25 19:23:00,34.9,25.4,29.68,North,355,4.0,0.0,68,0.00,,OVC050,0.00,21.00,VWS V14.01,2013-03-25 23:23:00,
2013-03-25 19:28:00,34.7,25.6,29.68,North,5,2.0,0.0,69,0.00,,OVC050,0.00,21.00,VWS V14.01,2013-03-25 23:28:00,
2013-03-25 19:30:00,35.0,25.9,29.67,NE,34,3.0,0.0,69,0.00,,OVC041,0.00,65.00,VWS V14.01,2013-03-25 23:30:00,
2013-03-25 19:33:00,34.7,25.6,29.70,North,351,2.0,0.0,69,0.00,,OVC050,0.00,16.00,VWS V14.01,2013-03-25 23:33:00,
2013-03-25 19:38:00,34.6,25.5,29.70,NW,319,5.0,0.0,69,0.00,,OVC050,0.00,11.00,VWS V14.01,2013-03-25 23:38:00,
2013-03-25 19:43:00,34.6,25.8,29.70,WNW,301,2.0,0.0,70,0.00,,OVC050,0.00,9.00,VWS V14.01,2013-03-25 23:43:00,
2013-03-25 19:48:00,34.4,25.6,29.70,NNW,331,0.0,0.0,70,0.00,,OVC050,0.00,7.00,VWS V14.01,2013-03-25 23:48:00,
2013-03-25 19:53:00,34.3,25.9,29.70,NW,325,0.0,0.0,71,0.00,,OVC050,0.00,0.00,VWS V14.01,2013-03-25 23:53:00,
2013-03-25 19:58:00,34.3,25.9,29.70,NW,307,2.0,0.0,71,0.00,,OVC050,0.00,0.00,VWS V14.01,2013-03-25 23:58:00,
2013-03-25 20:00:00,34.9,25.8,29.68,NNW,332,1.0,0.0,69,0.00,,OVC041,0.00,83.00,VWS V14.01,2013-03-26 00:00:00,
2013-03-25 20:03:00,34.1,25.7,29.72,NNW,336,0.0,0.0,71,0.00,,OVC050,0.00,0.00,VWS V14.01,2013-03-26 00:03:00,
2013-03-25 20:08:00,34.1,25.7,29.72,NW,324,1.0,0.0,71,0.00,,OVC050,0.00,0.00,VWS V14.01,2013-03-26 00:08:00,
2013-03-25 20:13:00,34.0,25.9,29.72,NW,316,3.0,0.0,72,0.00,,OVC050,0.00,0.00,VWS V14.01,2013-03-26 00:13:00,
2013-03-25 20:18:00,33.8,25.7,29.72,NNW,333,0.0,0.0,72,0.00,,OVC050,0.00,0.00,VWS V14.01,2013-03-26 00:18:00,
2013-03-25 20:23:00,33.8,25.7,29.72,NNW,331,2.0,0.0,72,0.00,,OVC055,0.00,0.00,VWS V14.01,2013-03-26 00:23:00,
2013-03-25 20:28:00,33.7,26.0,29.72,NW,320,1.0,0.0,73,0.00,,OVC055,0.00,0.00,VWS V14.01,2013-03-26 00:28:00,
2013-03-25 20:30:00,34.7,25.6,29.70,WNW,289,3.0,0.0,69,0.00,,OVC041,0.00,18.00,VWS V14.01,2013-03-26 00:30:00,
2013-03-25 20:33:00,33.7,26.0,29.73,NW,311,0.0,0.0,73,0.00,,OVC055,0.00,0.00,VWS V14.01,2013-03-26 00:33:00,
2013-03-25 20:38:00,33.7,26.0,29.73,NW,323,1.0,0.0,73,0.00,,OVC055,0.00,0.00,VWS V14.01,2013-03-26 00:38:00,
2013-03-25 20:43:00,33.5,25.8,29.73,NNW,345,4.0,0.0,73,0.00,,OVC055,0.00,0.00,VWS V14.01,2013-03-26 00:43:00,
2013-03-25 20:48:00,33.5,25.8,29.73,NNW,332,1.0,0.0,73,0.00,,OVC055,0.00,0.00,VWS V14.01,2013-03-26 00:48:00,
2013-03-25 20:53:00,33.5,25.8,29.73,NW,326,1.0,0.0,73,0.00,,OVC055,0.00,0.00,VWS V14.01,2013-03-26 00:53:00,
2013-03-25 20:58:00,33.4,26.0,29.73,NW,307,0.0,0.0,74,0.00,,OVC055,0.00,0.00,VWS V14.01,2013-03-26 00:58:00,
2013-03-25 21:00:00,34.1,25.7,29.72,NW,319,0.0,0.0,71,0.00,,OVC041,0.00,0.00,VWS V14.01,2013-03-26 01:00:00,
2013-03-25 21:03:00,33.4,26.0,29.74,NW,322,0.0,0.0,74,0.00,,OVC055,0.00,0.00,VWS V14.01,2013-03-26 01:03:00,
2013-03-25 21:08:00,33.4,26.0,29.74,NW,319,0.0,0.0,74,0.00,,OVC055,0.00,0.00,VWS V14.01,2013-03-26 01:08:00,
2013-03-25 21:13:00,33.2,25.8,29.74,NW,323,0.0,0.0,74,0.00,,OVC055,0.00,0.00,VWS V14.01,2013-03-26 01:13:00,
2013-03-25 21:18:00,33.2,25.8,29.75,NW,322,0.0,0.0,74,0.00,,OVC055,0.00,0.00,VWS V14.01,2013-03-26 01:18:00,
2013-03-25 21:23:00,33.2,26.1,29.75,NW,306,0.0,0.0,75,0.00,,OVC055,0.00,0.00,VWS V14.01,2013-03-26 01:23:00,
2013-03-25 21:28:00,33.2,26.1,29.75,North,11,0.0,0.0,75,0.00,,OVC055,0.00,0.00,VWS V14.01,2013-03-26 01:28:00,
2013-03-25 21:30:00,33.7,26.0,29.73,NW,310,0.0,0.0,73,0.00,,OVC041,0.00,0.00,VWS V14.01,2013-03-26 01:30:00,
2013-03-25 21:33:00,33.1,26.0,29.75,NNW,338,2.0,0.0,75,0.00,,OVC055,0.00,0.00,VWS V14.01,2013-03-26 01:33:00,
2013-03-25 21:38:00,33.1,26.0,29.75,NNE,19,0.0,0.0,75,0.00,,OVC055,0.00,0.00,VWS V14.01,2013-03-26 01:38:00,
2013-03-25 21:43:00,33.1,26.0,29.75,NNW,339,0.0,0.0,75,0.00,,OVC055,0.00,0.00,VWS V14.01,2013-03-26 01:43:00,
2013-03-25 21:48:00,33.1,26.0,29.76,NNW,339,0.0,0.0,75,0.00,,OVC055,0.00,0.00,VWS V14.01,2013-03-26 01:48:00,
2013-03-25 21:53:00,33.1,26.0,29.76,NW,315,0.0,0.0,75,0.00,,OVC055,0.00,0.00,VWS V14.01,2013-03-26 01:53:00,
2013-03-25 21:58:00,33.1,26.4,29.76,NNW,337,0.0,0.0,76,0.00,,OVC055,0.00,0.00,VWS V14.01,2013-03-26 01:58:00,
2013-03-25 22:00:00,33.4,26.0,29.74,NNW,336,1.0,0.0,74,0.00,,OVC041,0.00,0.00,VWS V14.01,2013-03-26 02:00:00,
2013-03-25 22:03:00,32.9,26.2,29.77,NW,324,0.0,0.0,76,0.00,,OVC055,0.00,0.00,VWS V14.01,2013-03-26 02:03:00,
2013-03-25 22:10:00,32.9,26.2,29.77,NNW,338,0.0,0.0,76,0.00,,OVC055,0.00,0.00,VWS V14.01,2013-03-26 02:10:00,
2013-03-25 22:15:00,32.9,26.2,29.77,WNW,300,3.0,0.0,76,0.00,,OVC055,0.00,0.00,VWS V14.01,2013-03-26 02:15:00,
2013-03-25 22:20:00,32.9,26.2,29.77,WNW,300,1.0,0.0,76,0.00,,OVC055,0.00,0.00,VWS V14.01,2013-03-26 02:20:00,
2013-03-25 22:25:00,32.9,26.2,29.77,WNW,300,0.0,0.0,76,0.00,,OVC055,0.00,0.00,VWS V14.01,2013-03-26 02:25:00,
2013-03-25 22:30:00,32.9,26.2,29.78,WNW,301,0.0,0.0,76,0.00,,OVC055,0.00,0.00,VWS V14.01,2013-03-26 02:30:00,
2013-03-25 22:35:00,32.9,26.2,29.78,NNW,327,0.0,0.0,76,0.00,,OVC055,0.00,0.00,VWS V14.01,2013-03-26 02:35:00,
2013-03-25 22:41:00,32.9,26.2,29.78,NNW,332,0.0,0.0,76,0.00,,OVC055,0.00,0.00,VWS V14.01,2013-03-26 02:41:00,
2013-03-25 22:46:00,32.9,26.2,29.78,NNW,331,0.0,0.0,76,0.00,,OVC055,0.00,0.00,VWS V14.01,2013-03-26 02:46:00,
2013-03-25 22:51:00,32.9,26.2,29.78,NNW,328,0.0,0.0,76,0.00,,OVC055,0.00,0.00,VWS V14.01,2013-03-26 02:51:00,
2013-03-25 22:56:00,32.9,26.2,29.78,NNW,328,1.0,0.0,76,0.00,,OVC055,0.00,0.00,VWS V14.01,2013-03-26 02:56:00,
2013-03-25 23:00:00,33.1,26.4,29.77,North,10,1.0,0.0,76,0.00,,OVC041,0.00,0.00,VWS V14.01,2013-03-26 03:00:00,
2013-03-25 23:01:00,32.9,26.2,29.78,NW,325,0.0,0.0,76,0.00,,OVC055,0.00,0.00,VWS V14.01,2013-03-26 03:01:00,
2013-03-25 23:06:00,32.9,26.2,29.78,NW,310,0.0,0.0,76,0.00,,OVC055,0.00,0.00,VWS V14.01,2013-03-26 03:06:00,
2013-03-25 23:11:00,32.9,26.2,29.78,NW,312,0.0,0.0,76,0.00,,OVC055,0.00,0.00,VWS V14.01,2013-03-26 03:11:00,
2013-03-25 23:16:00,32.9,26.5,29.78,NW,312,0.0,0.0,77,0.00,,OVC055,0.00,0.00,VWS V14.01,2013-03-26 03:16:00,
2013-03-25 23:21:00,32.9,26.5,29.78,NE,50,0.0,0.0,77,0.00,,OVC055,0.00,0.00,VWS V14.01,2013-03-26 03:21:00,
2013-03-25 23:26:00,32.9,26.5,29.78,NW,309,1.0,0.0,77,0.00,,OVC055,0.00,0.00,VWS V14.01,2013-03-26 03:26:00,
2013-03-25 23:30:00,32.9,26.2,29.78,West,265,1.0,0.0,76,0.00,,OVC041,0.00,0.00,VWS V14.01,2013-03-26 03:30:00,
2013-03-25 23:31:00,32.9,26.5,29.79,NNW,344,0.0,0.0,77,0.00,,OVC055,0.00,0.00,VWS V14.01,2013-03-26 03:31:00,
2013-03-25 23:36:00,32.8,26.4,29.79,NW,305,0.0,0.0,77,0.00,,OVC060,0.00,0.00,VWS V14.01,2013-03-26 03:36:00,
2013-03-25 23:41:00,32.8,26.4,29.79,NW,311,0.0,0.0,77,0.00,,OVC060,0.00,0.00,VWS V14.01,2013-03-26 03:41:00,
2013-03-25 23:46:00,32.8,26.4,29.79,NW,311,0.0,0.0,77,0.00,,OVC060,0.00,0.00,VWS V14.01,2013-03-26 03:46:00,
2013-03-25 23:51:00,32.8,26.4,29.79,NW,326,1.0,0.0,77,0.00,,OVC060,0.00,0.00,VWS V14.01,2013-03-26 03:51:00,
2013-03-25 23:56:00,32.8,26.4,29.79,NW,318,0.0,0.0,77,0.00,,OVC060,0.00,0.00,VWS V14.01,2013-03-26 03:56:00,